Time;durP1;ratioP1;P1;durP2;ratioP2;P2;SDS_P1;SDS_P2;PMS_P1;PMS_P2;Temp;Humidity;BMP_temperature;BMP_pressure;BME280_temperature;BME280_humidity;BME280_pressure;Samples;Min_cycle;Max_cycle;Signal;HPM_P1;HPM_P2
2022/03/17 00:03:37;;;;;;;34.13;22.00;;;;;11.60;101395.00;;;;10499136;28;20199;-77
2022/03/17 00:08:40;;;;;;;33.83;21.07;;;;;11.60;101399.00;;;;10493242;28;20193;-77
2022/03/17 00:13:41;;;;;;;30.57;21.37;;;;;11.70;101408.00;;;;10467941;28;20245;-78
2022/03/17 00:18:43;;;;;;;29.17;21.03;;;;;11.80;101397.00;;;;10518198;28;20204;-77
2022/03/17 00:23:48;;;;;;;33.97;22.83;;;;;12.00;101406.00;;;;10492822;28;20284;-76
2022/03/17 00:28:50;;;;;;;34.70;22.90;;;;;12.10;101407.00;;;;10499542;28;20185;-76
2022/03/17 00:33:52;;;;;;;34.83;24.33;;;;;12.20;101402.00;;;;10490899;28;20197;-75
2022/03/17 00:38:54;;;;;;;35.47;24.03;;;;;12.20;101410.00;;;;10492976;28;20213;-78
2022/03/17 00:43:56;;;;;;;39.87;22.97;;;;;12.20;101409.00;;;;10493429;28;20201;-77
2022/03/17 00:48:58;;;;;;;33.57;24.33;;;;;12.10;101412.00;;;;10492403;28;20250;-78
2022/03/17 00:54:00;;;;;;;35.63;23.87;;;;;12.20;101433.00;;;;10467959;28;20703;-78
2022/03/17 00:59:02;;;;;;;35.87;25.53;;;;;12.20;101435.00;;;;10518386;28;20679;-77
2022/03/17 01:04:04;;;;;;;37.50;25.43;;;;;12.20;101444.00;;;;10506482;28;20220;-76
2022/03/17 01:09:06;;;;;;;36.87;25.23;;;;;12.10;101447.00;;;;10494192;28;20221;-76
2022/03/17 01:14:08;;;;;;;39.47;26.83;;;;;12.00;101450.00;;;;10521073;28;20207;-78
2022/03/17 01:19:10;;;;;;;33.33;25.10;;;;;11.90;101450.00;;;;10491706;28;20233;-76
2022/03/17 01:24:11;;;;;;;35.87;26.00;;;;;11.90;101445.00;;;;10485665;28;20227;-75
2022/03/17 01:29:14;;;;;;;33.13;24.93;;;;;11.90;101441.00;;;;10506973;28;20213;-77
2022/03/17 01:34:17;;;;;;;33.43;22.53;;;;;11.90;101458.00;;;;10508121;28;20201;-77
2022/03/17 01:39:19;;;;;;;26.60;21.57;;;;;11.90;101466.00;;;;10468058;28;20204;-77
2022/03/17 01:44:21;;;;;;;19.53;14.73;;;;;11.80;101486.00;;;;10507249;28;20269;-77
2022/03/17 01:49:23;;;;;;;17.80;15.13;;;;;11.70;101498.00;;;;10466934;28;20268;-78
2022/03/17 01:54:25;;;;;;;19.73;17.00;;;;;11.50;101532.00;;;;10490219;28;20189;-77
2022/03/17 01:59:40;;;;;;;25.30;16.33;;;;;10.90;101525.00;;;;10474887;28;20208;-77
2022/03/17 02:04:43;;;;;;;21.27;14.90;;;;;10.40;101553.00;;;;10489496;28;20257;-77
2022/03/17 02:09:45;;;;;;;26.47;19.13;;;;;10.00;101559.00;;;;10501694;28;20197;-77
2022/03/17 02:14:48;;;;;;;22.83;17.63;;;;;9.70;101567.00;;;;10488514;28;20201;-77
2022/03/17 02:19:50;;;;;;;25.03;18.00;;;;;9.70;101556.00;;;;10479720;28;20216;-77
2022/03/17 02:30:16;;;;;;;24.60;15.87;;;;;9.50;101605.00;;;;10521754;28;20185;-77
2022/03/17 02:35:23;;;;;;;23.40;17.17;;;;;9.40;101637.00;;;;10488042;28;20189;-77
2022/03/17 02:40:25;;;;;;;28.27;17.87;;;;;9.40;101643.00;;;;10520614;28;20304;-77
2022/03/17 02:45:27;;;;;;;30.20;20.23;;;;;9.30;101650.00;;;;10504772;28;20689;-77
2022/03/17 02:50:30;;;;;;;24.33;16.17;;;;;9.30;101654.00;;;;10503985;28;20547;-77
2022/03/17 02:55:34;;;;;;;26.87;18.33;;;;;9.30;101667.00;;;;10487612;28;20200;-77
2022/03/17 03:00:37;;;;;;;24.40;17.83;;;;;9.30;101672.00;;;;10503913;28;20201;-77
2022/03/17 03:05:40;;;;;;;33.07;20.07;;;;;9.20;101673.00;;;;10503133;28;20208;-77
2022/03/17 03:10:44;;;;;;;27.13;19.57;;;;;9.20;101684.00;;;;10503242;28;20188;-77
2022/03/17 03:15:46;;;;;;;29.17;20.27;;;;;9.10;101697.00;;;;10495251;28;20216;-77
2022/03/17 03:20:48;;;;;;;22.57;15.23;;;;;9.10;101667.00;;;;10486237;28;20246;-77
2022/03/17 03:25:49;;;;;;;27.37;20.27;;;;;9.10;101726.00;;;;10486052;28;20205;-77
2022/03/17 03:30:54;;;;;;;23.33;16.97;;;;;9.10;101743.00;;;;10470423;28;20238;-77
2022/03/17 03:41:17;;;;;;;26.10;17.60;;;;;9.00;101768.00;;;;10510502;28;20227;-77
2022/03/17 03:46:19;;;;;;;21.23;14.40;;;;;9.00;101766.00;;;;10526977;28;20181;-77
2022/03/17 03:51:21;;;;;;;17.73;13.27;;;;;8.90;101792.00;;;;10527254;28;20691;-77
2022/03/17 03:56:25;;;;;;;21.27;15.53;;;;;8.90;101808.00;;;;10526427;28;20276;-77
2022/03/17 04:01:27;;;;;;;15.57;10.93;;;;;8.90;101802.00;;;;10493381;28;20217;-77
2022/03/17 04:06:31;;;;;;;19.70;13.57;;;;;8.80;101828.00;;;;10527079;28;20618;-77
2022/03/17 04:11:33;;;;;;;19.43;14.83;;;;;8.70;101851.00;;;;10509786;28;20193;-77
2022/03/17 04:16:35;;;;;;;15.97;12.10;;;;;8.70;101860.00;;;;10509192;28;20200;-77
2022/03/17 04:21:37;;;;;;;15.20;11.37;;;;;8.60;101863.00;;;;10476646;28;20208;-78
2022/03/17 04:26:39;;;;;;;18.70;14.97;;;;;8.60;101890.00;;;;10509636;28;20271;-77
2022/03/17 04:31:43;;;;;;;21.20;13.33;;;;;8.60;101903.00;;;;10509813;28;20199;-77
2022/03/17 04:36:45;;;;;;;19.17;14.07;;;;;8.60;101908.00;;;;10529178;28;20207;-77
2022/03/17 04:41:48;;;;;;;19.70;15.37;;;;;8.50;101923.00;;;;10492154;28;20228;-77
2022/03/17 04:46:50;;;;;;;19.87;15.27;;;;;8.50;101937.00;;;;10509162;28;20254;-77
2022/03/17 04:51:52;;;;;;;20.00;14.70;;;;;8.50;101947.00;;;;10491424;28;20536;-77
2022/03/17 04:56:54;;;;;;;21.77;15.47;;;;;8.50;101961.00;;;;10509312;28;20199;-77
2022/03/17 05:01:56;;;;;;;18.80;14.80;;;;;8.50;101968.00;;;;10508578;28;20687;-77
2022/03/17 05:06:58;;;;;;;14.70;12.47;;;;;8.40;101977.00;;;;10508501;28;20700;-77
2022/03/17 05:12:00;;;;;;;17.50;12.03;;;;;8.40;101992.00;;;;10507980;28;20189;-76
2022/03/17 05:17:02;;;;;;;15.13;13.13;;;;;8.40;101992.00;;;;10474885;28;20200;-77
2022/03/17 05:22:04;;;;;;;18.43;11.97;;;;;8.40;102020.00;;;;10524388;28;20664;-77
2022/03/17 05:27:06;;;;;;;15.73;11.77;;;;;8.40;102035.00;;;;10507843;28;20200;-77
2022/03/17 05:32:08;;;;;;;16.20;11.17;;;;;8.40;102047.00;;;;10524514;28;20193;-77
2022/03/17 05:37:10;;;;;;;15.23;12.30;;;;;8.30;102055.00;;;;10489373;28;20221;-77
2022/03/17 05:42:12;;;;;;;15.00;12.57;;;;;8.30;102062.00;;;;10506196;28;20694;-76
2022/03/17 05:47:14;;;;;;;16.27;12.77;;;;;8.30;102069.00;;;;10490422;28;20200;-77
2022/03/17 05:52:19;;;;;;;16.33;10.93;;;;;8.30;102081.00;;;;10489747;28;20189;-77
2022/03/17 05:57:21;;;;;;;14.67;12.73;;;;;8.30;102091.00;;;;10505404;28;20197;-77
2022/03/17 06:02:23;;;;;;;15.57;11.50;;;;;8.30;102091.00;;;;10505747;28;20197;-77
2022/03/17 06:07:25;;;;;;;16.77;11.87;;;;;8.20;102103.00;;;;10476285;28;20201;-77
2022/03/17 06:12:26;;;;;;;14.27;10.73;;;;;8.20;102117.00;;;;10474101;28;20245;-77
2022/03/17 06:17:44;;;;;;;14.73;11.73;;;;;8.20;102125.00;;;;10505370;28;20605;-77
2022/03/17 06:22:49;;;;;;;20.77;11.70;;;;;8.20;102133.00;;;;10506162;28;20200;-77
2022/03/17 06:27:51;;;;;;;16.77;12.13;;;;;8.20;102146.00;;;;10504852;28;20258;-76
2022/03/17 06:32:54;;;;;;;15.97;12.57;;;;;8.20;102158.00;;;;10504926;28;20189;-77
2022/03/17 06:37:59;;;;;;;17.90;11.70;;;;;8.20;102172.00;;;;10489913;28;20232;-77
2022/03/17 06:43:04;;;;;;;16.10;12.30;;;;;8.30;102166.00;;;;10480353;28;20209;-77
2022/03/17 06:48:06;;;;;;;15.20;11.17;;;;;8.40;102188.00;;;;10519661;28;20609;-77
2022/03/17 06:53:08;;;;;;;17.03;10.63;;;;;8.40;102203.00;;;;10488594;28;20543;-77
2022/03/17 06:58:10;;;;;;;15.67;10.37;;;;;8.40;102219.00;;;;10446737;28;20201;-77
2022/03/17 07:03:12;;;;;;;17.20;10.13;;;;;8.40;102232.00;;;;10536616;28;20204;-77
2022/03/17 07:08:14;;;;;;;16.50;8.90;;;;;8.30;102248.00;;;;10503632;28;20200;-77
2022/03/17 07:13:16;;;;;;;13.67;7.77;;;;;8.20;102252.00;;;;10504332;28;20185;-77
2022/03/17 07:18:19;;;;;;;11.70;8.20;;;;;8.20;102258.00;;;;10487632;28;20197;-77
2022/03/17 07:23:22;;;;;;;11.70;7.70;;;;;8.40;102259.00;;;;10471952;28;20216;-76
2022/03/17 07:28:26;;;;;;;11.90;7.07;;;;;8.40;102280.00;;;;10504157;28;20203;-77
2022/03/17 07:33:27;;;;;;;11.50;7.70;;;;;8.50;102293.00;;;;10519928;28;20232;-77
2022/03/17 07:38:29;;;;;;;10.83;6.83;;;;;8.50;102302.00;;;;10503385;28;20236;-77
2022/03/17 07:43:31;;;;;;;7.00;5.93;;;;;8.40;102321.00;;;;10487000;28;20217;-77
2022/03/17 07:48:56;;;;;;;10.33;6.33;;;;;8.40;102331.00;;;;10498350;28;20213;-77
2022/03/17 07:54:09;;;;;;;12.33;7.00;;;;;8.40;102332.00;;;;10503614;28;20181;-77
2022/03/17 07:59:11;;;;;;;13.77;7.77;;;;;8.50;102357.00;;;;10486349;28;20216;-77
2022/03/17 08:04:13;;;;;;;8.67;5.60;;;;;8.50;102357.00;;;;10487097;28;20246;-77
2022/03/17 08:09:15;;;;;;;10.27;6.80;;;;;8.70;102368.00;;;;10486606;28;20231;-77
2022/03/17 08:14:16;;;;;;;7.43;5.80;;;;;9.00;102385.00;;;;10486727;28;20188;-77
2022/03/17 08:19:19;;;;;;;12.90;6.43;;;;;9.30;102393.00;;;;10506844;28;20268;-77
2022/03/17 08:24:21;;;;;;;5.60;4.83;;;;;9.30;102399.00;;;;10468803;28;20228;-77
2022/03/17 08:29:23;;;;;;;6.10;4.40;;;;;9.30;102412.00;;;;10493091;28;20551;-77
2022/03/17 08:34:26;;;;;;;10.50;4.40;;;;;9.40;102425.00;;;;10511003;28;20571;-77
2022/03/17 08:39:28;;;;;;;5.70;4.27;;;;;9.30;102436.00;;;;10510701;28;20224;-76
2022/03/17 08:44:31;;;;;;;7.13;4.03;;;;;9.30;102435.00;;;;10510393;28;20666;-77
2022/03/17 08:49:33;;;;;;;7.07;3.90;;;;;9.30;102452.00;;;;10451376;28;20202;-77
2022/03/17 08:54:35;;;;;;;5.00;2.40;;;;;9.50;102461.00;;;;10512403;28;20756;-76
2022/03/17 08:59:38;;;;;;;2.30;2.07;;;;;9.50;102467.00;;;;10520283;28;20209;-77
2022/03/17 09:04:40;;;;;;;2.30;1.63;;;;;9.50;102487.00;;;;10516082;28;20276;-78
2022/03/17 09:09:42;;;;;;;4.03;1.70;;;;;9.70;102490.00;;;;10481826;28;20188;-79
2022/03/17 09:14:44;;;;;;;2.03;1.70;;;;;9.90;102501.00;;;;10507277;28;20197;-77
2022/03/17 09:19:46;;;;;;;7.87;1.60;;;;;10.00;102513.00;;;;10505711;28;20212;-77
2022/03/17 09:24:48;;;;;;;3.50;1.77;;;;;10.10;102523.00;;;;10493167;28;20717;-76
2022/03/17 09:29:50;;;;;;;3.43;1.70;;;;;10.40;102524.00;;;;10489148;28;20566;-77
2022/03/17 09:34:52;;;;;;;2.00;1.47;;;;;10.60;102538.00;;;;10506988;28;20224;-77
2022/03/17 09:39:54;;;;;;;2.70;1.53;;;;;10.60;102546.00;;;;10518824;28;20687;-77
2022/03/17 09:44:56;;;;;;;4.80;1.97;;;;;10.80;102553.00;;;;10490018;28;20201;-77
2022/03/17 09:49:59;;;;;;;5.07;2.10;;;;;10.60;102565.00;;;;10497045;28;20212;-77
2022/03/17 09:55:02;;;;;;;1.60;1.50;;;;;10.40;102567.00;;;;10539017;28;20197;-77
2022/03/17 10:00:05;;;;;;;3.53;1.93;;;;;10.40;102566.00;;;;10506250;28;20200;-77
2022/03/17 10:05:11;;;;;;;3.07;2.13;;;;;10.80;102570.00;;;;10528565;28;20231;-77
2022/03/17 10:10:13;;;;;;;3.43;2.00;;;;;11.10;102572.00;;;;10511641;28;20192;-77
2022/03/17 10:15:19;;;;;;;6.00;2.63;;;;;11.20;102573.00;;;;10514243;28;20192;-77
2022/03/17 10:20:25;;;;;;;3.10;2.17;;;;;11.30;102595.00;;;;10518486;28;20209;-77
2022/03/17 10:25:29;;;;;;;2.77;2.00;;;;;11.60;102593.00;;;;10534619;28;20192;-77
2022/03/17 10:30:35;;;;;;;3.30;2.60;;;;;11.80;102594.00;;;;10507218;28;20193;-77
2022/03/17 10:35:38;;;;;;;5.40;2.60;;;;;11.60;102610.00;;;;10523523;28;20189;-77
2022/03/17 10:40:42;;;;;;;5.80;2.90;;;;;11.50;102620.00;;;;10523534;28;20208;-77
2022/03/17 10:45:44;;;;;;;6.80;3.37;;;;;11.80;102626.00;;;;10508843;28;20235;-78
2022/03/17 10:50:47;;;;;;;5.30;3.20;;;;;12.10;102630.00;;;;10487708;28;20250;-78
2022/03/17 10:55:49;;;;;;;6.17;3.23;;;;;12.30;102642.00;;;;10506721;28;20639;-78
2022/03/17 11:00:55;;;;;;;6.20;3.03;;;;;12.50;102656.00;;;;10501526;28;20213;-77
2022/03/17 11:05:58;;;;;;;8.30;3.40;;;;;12.60;102648.00;;;;10497328;28;20188;-77
2022/03/17 11:11:00;;;;;;;3.97;2.17;;;;;12.70;102656.00;;;;10486179;28;20193;-74
2022/03/17 11:16:06;;;;;;;6.03;2.60;;;;;13.00;102658.00;;;;10534302;28;20653;-75
2022/03/17 11:21:12;;;;;;;7.93;2.97;;;;;13.30;102657.00;;;;10500430;28;20243;-77
2022/03/17 11:26:22;;;;;;;3.60;2.00;;;;;13.80;102669.00;;;;10536986;28;20224;-75
2022/03/17 11:31:27;;;;;;;2.60;1.90;;;;;13.70;102676.00;;;;10518180;28;20266;-75
2022/03/17 11:36:31;;;;;;;2.63;1.60;;;;;13.30;102684.00;;;;10501382;28;20724;-77
2022/03/17 11:41:41;;;;;;;3.50;1.97;;;;;13.20;102678.00;;;;10506618;28;20587;-77
2022/03/17 11:46:45;;;;;;;4.17;2.10;;;;;13.50;102677.00;;;;10534017;28;20200;-77
2022/03/17 11:51:56;;;;;;;7.77;2.20;;;;;13.40;102683.00;;;;10488508;28;20192;-75
2022/03/17 11:57:06;;;;;;;3.57;2.30;;;;;13.20;102685.00;;;;10509360;28;20262;-75
2022/03/17 12:02:12;;;;;;;3.87;2.37;;;;;13.40;102693.00;;;;10492402;28;20296;-76
2022/03/17 12:07:17;;;;;;;4.20;2.70;;;;;13.30;102693.00;;;;10508930;28;20246;-77
2022/03/17 12:12:23;;;;;;;8.67;2.90;;;;;13.50;102687.00;;;;10508465;28;20566;-74
2022/03/17 12:17:26;;;;;;;6.93;3.13;;;;;13.80;102705.00;;;;10522119;28;20668;-77
2022/03/17 12:22:31;;;;;;;4.30;3.10;;;;;13.90;102710.00;;;;10514808;28;20237;-76
2022/03/17 12:27:36;;;;;;;8.37;3.27;;;;;13.90;102705.00;;;;10535035;28;20252;-75
2022/03/17 12:32:50;;;;;;;4.77;2.83;;;;;13.90;102710.00;;;;10539673;28;20233;-77
2022/03/17 12:38:05;;;;;;;4.63;3.90;;;;;13.80;102699.00;;;;10544980;28;20570;-75
2022/03/17 12:43:18;;;;;;;5.03;3.07;;;;;13.70;102709.00;;;;10495157;28;20227;-77
2022/03/17 12:48:22;;;;;;;3.43;2.53;;;;;13.70;102698.00;;;;10526254;28;20268;-76
2022/03/17 12:53:26;;;;;;;7.67;3.23;;;;;13.70;102713.00;;;;10546882;28;20189;-77
2022/03/17 12:58:28;;;;;;;6.30;3.13;;;;;13.70;102716.00;;;;10479574;28;20192;-75
2022/03/17 13:03:30;;;;;;;7.83;3.30;;;;;13.70;102717.00;;;;10507189;28;20581;-77
2022/03/17 13:08:36;;;;;;;7.00;3.60;;;;;13.70;102713.00;;;;10498704;28;20246;-75
2022/03/17 13:18:58;;;;;;;6.00;4.00;;;;;14.40;102715.00;;;;10519989;28;20196;-77
2022/03/17 13:24:15;;;;;;;5.27;4.57;;;;;14.60;102706.00;;;;10473850;28;20254;-75
2022/03/17 13:29:17;;;;;;;7.50;5.03;;;;;14.40;102693.00;;;;10522667;28;20204;-75
2022/03/17 13:34:29;;;;;;;6.77;4.20;;;;;14.50;102710.00;;;;10532255;28;20250;-75
2022/03/17 13:39:33;;;;;;;7.07;3.70;;;;;14.50;102700.00;;;;10527271;28;20208;-75
2022/03/17 13:44:54;;;;;;;3.83;3.40;;;;;14.50;102705.00;;;;10501262;28;20225;-75
2022/03/17 13:50:21;;;;;;;7.17;4.43;;;;;14.40;102713.00;;;;10495164;28;20184;-75
2022/03/17 13:55:34;;;;;;;6.40;5.23;;;;;14.20;102701.00;;;;10496221;28;20201;-76
2022/03/17 14:00:36;;;;;;;7.13;4.73;;;;;14.20;102704.00;;;;10491894;28;20674;-75
2022/03/17 14:06:10;;;;;;;7.67;4.60;;;;;14.40;102717.00;;;;10503197;28;20189;-75
2022/03/17 14:11:17;;;;;;;4.77;3.70;;;;;14.50;102721.00;;;;10521420;28;20189;-76
2022/03/17 14:16:21;;;;;;;5.87;3.10;;;;;14.30;102724.00;;;;10503627;28;20207;-76
2022/03/17 14:21:25;;;;;;;4.40;3.30;;;;;14.60;102721.00;;;;10487748;28;20662;-75
2022/03/17 14:26:29;;;;;;;5.70;3.50;;;;;14.40;102722.00;;;;10473244;28;20208;-75
2022/03/17 14:31:35;;;;;;;6.43;3.30;;;;;14.40;102722.00;;;;10495088;28;20184;-76
2022/03/17 14:36:40;;;;;;;6.17;4.07;;;;;14.40;102744.00;;;;10495882;28;20200;-76
2022/03/17 14:41:42;;;;;;;5.20;4.00;;;;;14.40;102745.00;;;;10471361;28;20224;-75
2022/03/17 14:46:44;;;;;;;8.43;3.70;;;;;14.40;102747.00;;;;10503512;28;20257;-76
2022/03/17 14:51:46;;;;;;;7.77;3.73;;;;;14.30;102742.00;;;;10485375;28;20525;-76
2022/03/17 14:57:05;;;;;;;7.23;3.67;;;;;14.00;102745.00;;;;10475942;28;20651;-76
2022/03/17 15:02:07;;;;;;;10.57;4.07;;;;;13.90;102741.00;;;;10519273;28;20217;-76
2022/03/17 15:07:10;;;;;;;5.23;2.80;;;;;13.90;102757.00;;;;10495316;28;20207;-76
2022/03/17 15:12:12;;;;;;;6.57;3.50;;;;;13.90;102759.00;;;;10518930;28;20189;-76
2022/03/17 15:17:14;;;;;;;5.80;3.00;;;;;13.70;102760.00;;;;10486178;28;20189;-76
2022/03/17 15:22:16;;;;;;;5.03;3.30;;;;;13.60;102769.00;;;;10480949;28;20209;-75
2022/03/17 15:32:40;;;;;;;8.23;3.67;;;;;13.80;102779.00;;;;10501485;28;20337;-75
2022/03/17 15:37:42;;;;;;;7.33;2.93;;;;;13.80;102779.00;;;;10496651;28;20201;-76
2022/03/17 15:42:44;;;;;;;14.27;3.27;;;;;13.50;102782.00;;;;10507872;28;20209;-75
2022/03/17 15:47:46;;;;;;;6.40;2.80;;;;;13.20;102794.00;;;;10481694;28;20192;-76
2022/03/17 15:52:49;;;;;;;5.63;2.80;;;;;13.20;102797.00;;;;10490841;28;20185;-76
2022/03/17 15:57:54;;;;;;;7.77;3.33;;;;;13.00;102792.00;;;;10498455;28;20184;-75
2022/03/17 16:02:59;;;;;;;7.13;3.13;;;;;13.10;102794.00;;;;10500189;28;20698;-75
2022/03/17 16:08:02;;;;;;;8.37;3.23;;;;;13.00;102807.00;;;;10500563;28;20246;-75
2022/03/17 16:18:26;;;;;;;5.47;1.90;;;;;12.70;102813.00;;;;10498747;28;20248;-76
2022/03/17 16:23:28;;;;;;;4.87;1.40;;;;;12.40;102822.00;;;;10494258;28;20740;-75
2022/03/17 16:28:30;;;;;;;3.10;1.70;;;;;12.10;102820.00;;;;10508737;28;20254;-76
2022/03/17 16:33:32;;;;;;;7.30;1.17;;;;;11.90;102838.00;;;;10523538;28;20186;-76
2022/03/17 16:38:35;;;;;;;5.53;1.40;;;;;11.60;102853.00;;;;10502615;28;20220;-76
2022/03/17 16:43:38;;;;;;;7.23;1.60;;;;;11.50;102858.00;;;;10505067;28;20735;-76
2022/03/17 16:48:41;;;;;;;3.33;1.10;;;;;11.30;102853.00;;;;10504656;28;20207;-76
2022/03/17 16:53:43;;;;;;;5.37;1.57;;;;;11.10;102862.00;;;;10490931;28;20665;-76
2022/03/17 16:58:45;;;;;;;2.67;1.33;;;;;11.00;102876.00;;;;10519521;28;20200;-76
2022/03/17 17:03:48;;;;;;;4.63;1.87;;;;;10.80;102878.00;;;;10500791;28;20235;-76
2022/03/17 17:08:50;;;;;;;3.97;1.20;;;;;10.60;102880.00;;;;10523546;28;20189;-76
2022/03/17 17:13:52;;;;;;;4.93;1.37;;;;;10.40;102900.00;;;;10503949;28;20238;-76
2022/03/17 17:18:54;;;;;;;4.70;1.73;;;;;10.30;102890.00;;;;10503442;28;20189;-76
2022/03/17 17:34:37;;;;;;;4.73;1.97;;;;;9.80;102916.00;;;;10483483;28;20201;-75
2022/03/17 17:39:39;;;;;;;8.43;2.90;;;;;9.50;102925.00;;;;10499559;28;20266;-76
2022/03/17 17:44:42;;;;;;;4.93;2.77;;;;;9.30;102928.00;;;;10510042;28;20200;-77
2022/03/17 17:49:44;;;;;;;6.93;3.83;;;;;9.10;102941.00;;;;10455170;28;20193;-76
2022/03/17 17:54:46;;;;;;;9.80;3.83;;;;;8.90;102941.00;;;;10536330;28;20176;-76
2022/03/17 17:59:48;;;;;;;8.70;4.47;;;;;8.60;102949.00;;;;10488060;28;20193;-76
2022/03/17 18:04:49;;;;;;;10.73;4.33;;;;;8.30;102946.00;;;;10482567;28;20496;-76
2022/03/17 18:09:55;;;;;;;13.20;3.67;;;;;8.10;102959.00;;;;10511053;28;20193;-76
2022/03/17 18:14:57;;;;;;;10.93;4.27;;;;;7.90;102965.00;;;;10485954;28;20215;-76
2022/03/17 18:19:59;;;;;;;9.40;3.87;;;;;7.70;102985.00;;;;10473802;28;20193;-76
2022/03/17 18:25:01;;;;;;;7.87;4.97;;;;;7.50;102978.00;;;;10480143;28;20210;-76
2022/03/17 18:30:07;;;;;;;6.67;4.37;;;;;7.40;102989.00;;;;10499041;28;20197;-76
2022/03/17 18:35:09;;;;;;;7.87;4.53;;;;;7.30;103005.00;;;;10528347;28;20257;-76
2022/03/17 18:40:16;;;;;;;12.17;4.63;;;;;7.20;103003.00;;;;10513900;28;20227;-76
2022/03/17 18:45:18;;;;;;;13.90;6.17;;;;;7.00;103003.00;;;;10491380;28;20236;-76
2022/03/17 18:50:21;;;;;;;9.80;5.87;;;;;6.90;103018.00;;;;10518505;28;20197;-76
2022/03/17 18:55:29;;;;;;;9.50;5.40;;;;;6.80;103021.00;;;;10524556;28;20752;-76
2022/03/17 19:00:31;;;;;;;11.07;5.60;;;;;6.70;103035.00;;;;10500546;28;20201;-76
2022/03/17 19:05:34;;;;;;;8.50;5.10;;;;;6.60;103034.00;;;;10518092;28;20200;-76
2022/03/17 19:10:35;;;;;;;9.93;5.77;;;;;6.40;103047.00;;;;10498341;28;20225;-76
2022/03/17 19:15:38;;;;;;;11.00;6.50;;;;;6.30;103064.00;;;;10502754;28;20194;-76
2022/03/17 19:20:44;;;;;;;10.00;5.93;;;;;6.30;103061.00;;;;10486037;28;20200;-76
2022/03/17 19:25:46;;;;;;;13.70;5.70;;;;;6.20;103079.00;;;;10472400;28;20239;-76
2022/03/17 19:30:48;;;;;;;10.47;5.73;;;;;6.10;103081.00;;;;10482626;28;20193;-75
2022/03/17 19:35:50;;;;;;;7.70;4.73;;;;;6.10;103092.00;;;;10535663;28;20211;-75
2022/03/17 19:41:13;;;;;;;9.90;5.10;;;;;6.00;103094.00;;;;10513412;28;20279;-76
2022/03/17 19:46:17;;;;;;;12.10;5.83;;;;;5.90;103106.00;;;;10495802;28;20247;-76
2022/03/17 19:51:20;;;;;;;7.57;5.07;;;;;5.90;103109.00;;;;10498706;28;20192;-76
2022/03/17 19:56:25;;;;;;;11.03;6.83;;;;;5.80;103113.00;;;;10498680;28;20185;-75
2022/03/17 20:01:29;;;;;;;12.37;8.37;;;;;5.60;103128.00;;;;10460206;28;20213;-75
2022/03/17 20:06:52;;;;;;;11.73;6.37;;;;;5.50;103140.00;;;;10480219;28;20193;-75
2022/03/17 20:17:20;;;;;;;12.10;8.53;;;;;5.40;103155.00;;;;10523654;28;20296;-75
2022/03/17 20:22:22;;;;;;;14.83;8.37;;;;;5.40;103165.00;;;;10506777;28;20529;-76
2022/03/17 20:27:24;;;;;;;12.07;7.73;;;;;5.40;103170.00;;;;10483836;28;20186;-76
2022/03/17 22:39:29;;;;;;;16.63;6.83;;;;;3.30;103276.00;;;;2727611;23;20299;-77
2022/03/17 22:44:31;;;;;;;12.73;6.50;;;;;3.30;103281.00;;;;10103314;29;20308;-77
2022/03/17 22:49:33;;;;;;;12.07;6.47;;;;;3.20;103280.00;;;;10105038;29;20246;-77
2022/03/17 22:54:35;;;;;;;12.93;7.23;;;;;3.10;103279.00;;;;10089610;29;20359;-77
2022/03/17 22:59:37;;;;;;;11.00;6.40;;;;;3.00;103284.00;;;;10147928;29;20215;-77
2022/03/17 23:04:46;;;;;;;10.97;6.87;;;;;2.90;103297.00;;;;10113862;29;20220;-77
2022/03/17 23:09:51;;;;;;;11.57;6.80;;;;;2.80;103277.00;;;;10108083;29;20761;-77
2022/03/17 23:14:56;;;;;;;12.03;6.77;;;;;2.80;103284.00;;;;10145239;29;20253;-77
2022/03/17 23:19:58;;;;;;;14.23;6.43;;;;;2.70;103285.00;;;;10101487;29;20227;-77
2022/03/17 23:25:00;;;;;;;8.97;6.07;;;;;2.60;103292.00;;;;10103650;29;20301;-77
2022/03/17 23:30:05;;;;;;;9.90;6.37;;;;;2.60;103279.00;;;;10123488;29;20621;-77
2022/03/17 23:35:11;;;;;;;13.00;6.07;;;;;2.50;103292.00;;;;10107943;29;20232;-77
2022/03/17 23:40:13;;;;;;;10.47;6.70;;;;;2.40;103287.00;;;;10096762;29;20216;-77
2022/03/17 23:45:15;;;;;;;11.10;6.57;;;;;2.30;103292.00;;;;10102911;29;20575;-77
2022/03/17 23:50:17;;;;;;;18.07;7.13;;;;;2.30;103299.00;;;;10086281;29;20251;-77
2022/03/17 23:55:19;;;;;;;12.17;6.77;;;;;2.20;103295.00;;;;10104980;29;20627;-77
